sensor_id;sensor_type;location;lat;lon;timestamp;P1;durP1;ratioP1;P2;durP2;ratioP2
17059;SDS011;8646;49.716;9.266;2024-03-17T00:00:07;8.87;;;2.70;;
17059;SDS011;8646;49.716;9.266;2024-03-17T00:03:14;4.87;;;2.30;;
17059;SDS011;8646;49.716;9.266;2024-03-17T00:06:16;5.97;;;2.50;;
17059;SDS011;8646;49.716;9.266;2024-03-17T00:09:17;3.97;;;2.43;;
17059;SDS011;8646;49.716;9.266;2024-03-17T00:12:22;3.37;;;2.33;;
17059;SDS011;8646;49.716;9.266;2024-03-17T00:15:22;5.60;;;2.43;;
17059;SDS011;8646;49.716;9.266;2024-03-17T00:18:24;5.13;;;2.23;;
17059;SDS011;8646;49.716;9.266;2024-03-17T00:21:27;4.70;;;2.40;;
17059;SDS011;8646;49.716;9.266;2024-03-17T00:24:29;3.97;;;2.60;;
17059;SDS011;8646;49.716;9.266;2024-03-17T00:27:36;3.77;;;2.60;;
17059;SDS011;8646;49.716;9.266;2024-03-17T00:30:40;7.37;;;3.30;;
17059;SDS011;8646;49.716;9.266;2024-03-17T00:33:41;8.40;;;3.63;;
17059;SDS011;8646;49.716;9.266;2024-03-17T00:36:43;6.37;;;3.27;;
17059;SDS011;8646;49.716;9.266;2024-03-17T00:39:44;6.93;;;3.63;;
17059;SDS011;8646;49.716;9.266;2024-03-17T00:42:48;6.63;;;3.30;;
17059;SDS011;8646;49.716;9.266;2024-03-17T00:45:51;7.50;;;3.10;;
17059;SDS011;8646;49.716;9.266;2024-03-17T00:48:53;6.07;;;2.77;;
17059;SDS011;8646;49.716;9.266;2024-03-17T00:51:55;5.80;;;3.00;;
17059;SDS011;8646;49.716;9.266;2024-03-17T00:54:57;5.63;;;2.83;;
17059;SDS011;8646;49.716;9.266;2024-03-17T00:58:00;6.37;;;3.07;;
17059;SDS011;8646;49.716;9.266;2024-03-17T01:01:01;7.10;;;2.87;;
17059;SDS011;8646;49.716;9.266;2024-03-17T01:04:03;10.17;;;3.40;;
17059;SDS011;8646;49.716;9.266;2024-03-17T01:07:05;7.80;;;3.50;;
17059;SDS011;8646;49.716;9.266;2024-03-17T01:10:07;6.60;;;3.50;;
17059;SDS011;8646;49.716;9.266;2024-03-17T01:13:10;6.67;;;3.70;;
17059;SDS011;8646;49.716;9.266;2024-03-17T01:16:12;8.87;;;3.20;;
17059;SDS011;8646;49.716;9.266;2024-03-17T01:19:13;4.90;;;2.90;;
17059;SDS011;8646;49.716;9.266;2024-03-17T01:22:15;4.10;;;2.50;;
17059;SDS011;8646;49.716;9.266;2024-03-17T01:25:17;5.10;;;2.40;;
17059;SDS011;8646;49.716;9.266;2024-03-17T01:28:20;4.63;;;2.90;;
17059;SDS011;8646;49.716;9.266;2024-03-17T01:31:21;7.70;;;2.80;;
17059;SDS011;8646;49.716;9.266;2024-03-17T01:34:22;3.20;;;2.53;;
17059;SDS011;8646;49.716;9.266;2024-03-17T01:37:24;4.20;;;2.80;;
17059;SDS011;8646;49.716;9.266;2024-03-17T01:40:26;5.13;;;2.83;;
17059;SDS011;8646;49.716;9.266;2024-03-17T01:43:29;9.13;;;2.93;;
17059;SDS011;8646;49.716;9.266;2024-03-17T01:46:30;3.87;;;2.50;;
17059;SDS011;8646;49.716;9.266;2024-03-17T01:49:32;4.13;;;2.60;;
17059;SDS011;8646;49.716;9.266;2024-03-17T01:52:34;5.03;;;2.63;;
17059;SDS011;8646;49.716;9.266;2024-03-17T01:55:37;5.67;;;2.97;;
17059;SDS011;8646;49.716;9.266;2024-03-17T01:58:40;7.37;;;3.20;;
17059;SDS011;8646;49.716;9.266;2024-03-17T02:01:45;8.77;;;3.60;;
17059;SDS011;8646;49.716;9.266;2024-03-17T02:04:46;6.13;;;3.37;;
17059;SDS011;8646;49.716;9.266;2024-03-17T02:07:48;6.97;;;3.70;;
17059;SDS011;8646;49.716;9.266;2024-03-17T02:10:51;7.10;;;3.80;;
17059;SDS011;8646;49.716;9.266;2024-03-17T02:13:55;6.33;;;3.60;;
17059;SDS011;8646;49.716;9.266;2024-03-17T02:16:57;6.10;;;3.33;;
17059;SDS011;8646;49.716;9.266;2024-03-17T02:19:59;10.60;;;3.00;;
17059;SDS011;8646;49.716;9.266;2024-03-17T02:23:02;7.07;;;3.10;;
17059;SDS011;8646;49.716;9.266;2024-03-17T02:26:03;6.00;;;2.57;;
17059;SDS011;8646;49.716;9.266;2024-03-17T02:29:05;7.40;;;2.80;;
17059;SDS011;8646;49.716;9.266;2024-03-17T02:32:07;7.40;;;2.90;;
17059;SDS011;8646;49.716;9.266;2024-03-17T02:35:08;6.07;;;3.00;;
17059;SDS011;8646;49.716;9.266;2024-03-17T02:38:16;4.30;;;2.60;;
17059;SDS011;8646;49.716;9.266;2024-03-17T02:41:41;4.90;;;2.80;;
17059;SDS011;8646;49.716;9.266;2024-03-17T02:44:42;5.87;;;2.90;;
17059;SDS011;8646;49.716;9.266;2024-03-17T02:47:44;5.23;;;2.67;;
17059;SDS011;8646;49.716;9.266;2024-03-17T02:50:46;5.23;;;3.20;;
17059;SDS011;8646;49.716;9.266;2024-03-17T02:53:49;4.90;;;2.93;;
17059;SDS011;8646;49.716;9.266;2024-03-17T02:56:52;4.47;;;3.07;;
17059;SDS011;8646;49.716;9.266;2024-03-17T02:59:53;8.90;;;3.50;;
17059;SDS011;8646;49.716;9.266;2024-03-17T03:02:55;6.33;;;3.37;;
17059;SDS011;8646;49.716;9.266;2024-03-17T03:05:57;6.70;;;4.00;;
17059;SDS011;8646;49.716;9.266;2024-03-17T03:09:02;7.73;;;3.73;;
17059;SDS011;8646;49.716;9.266;2024-03-17T03:12:06;7.87;;;3.90;;
17059;SDS011;8646;49.716;9.266;2024-03-17T03:15:08;9.13;;;4.20;;
17059;SDS011;8646;49.716;9.266;2024-03-17T03:18:10;10.33;;;3.90;;
17059;SDS011;8646;49.716;9.266;2024-03-17T03:21:12;9.40;;;4.57;;
17059;SDS011;8646;49.716;9.266;2024-03-17T03:24:15;10.60;;;4.80;;
17059;SDS011;8646;49.716;9.266;2024-03-17T03:27:17;10.83;;;4.23;;
17059;SDS011;8646;49.716;9.266;2024-03-17T03:30:19;6.20;;;3.20;;
17059;SDS011;8646;49.716;9.266;2024-03-17T03:33:21;6.17;;;3.57;;
17059;SDS011;8646;49.716;9.266;2024-03-17T03:36:23;8.77;;;3.47;;
17059;SDS011;8646;49.716;9.266;2024-03-17T03:39:27;6.27;;;3.50;;
17059;SDS011;8646;49.716;9.266;2024-03-17T03:42:32;7.57;;;4.10;;
17059;SDS011;8646;49.716;9.266;2024-03-17T03:45:34;10.37;;;3.90;;
17059;SDS011;8646;49.716;9.266;2024-03-17T03:48:36;8.17;;;4.40;;
17059;SDS011;8646;49.716;9.266;2024-03-17T03:51:38;6.63;;;4.00;;
17059;SDS011;8646;49.716;9.266;2024-03-17T03:54:41;6.53;;;3.70;;
17059;SDS011;8646;49.716;9.266;2024-03-17T03:57:43;9.23;;;3.60;;
17059;SDS011;8646;49.716;9.266;2024-03-17T04:00:46;6.87;;;3.70;;
17059;SDS011;8646;49.716;9.266;2024-03-17T04:03:48;11.70;;;3.87;;
17059;SDS011;8646;49.716;9.266;2024-03-17T04:06:50;8.03;;;3.30;;
17059;SDS011;8646;49.716;9.266;2024-03-17T04:09:53;7.00;;;3.17;;
17059;SDS011;8646;49.716;9.266;2024-03-17T04:12:55;11.03;;;4.57;;
17059;SDS011;8646;49.716;9.266;2024-03-17T04:15:57;7.23;;;3.90;;
17059;SDS011;8646;49.716;9.266;2024-03-17T04:18:59;5.03;;;3.07;;
17059;SDS011;8646;49.716;9.266;2024-03-17T04:22:01;6.70;;;3.60;;
17059;SDS011;8646;49.716;9.266;2024-03-17T04:25:04;7.20;;;2.90;;
17059;SDS011;8646;49.716;9.266;2024-03-17T04:28:06;6.03;;;2.70;;
17059;SDS011;8646;49.716;9.266;2024-03-17T04:31:08;4.67;;;2.53;;
17059;SDS011;8646;49.716;9.266;2024-03-17T04:34:11;6.07;;;2.57;;
17059;SDS011;8646;49.716;9.266;2024-03-17T04:37:13;7.03;;;2.40;;
17059;SDS011;8646;49.716;9.266;2024-03-17T04:40:17;4.63;;;2.60;;
17059;SDS011;8646;49.716;9.266;2024-03-17T04:43:19;6.20;;;3.30;;
17059;SDS011;8646;49.716;9.266;2024-03-17T04:46:21;4.87;;;2.57;;
17059;SDS011;8646;49.716;9.266;2024-03-17T04:49:23;6.00;;;2.73;;
17059;SDS011;8646;49.716;9.266;2024-03-17T04:52:24;4.03;;;2.50;;
17059;SDS011;8646;49.716;9.266;2024-03-17T04:55:27;3.90;;;2.20;;
17059;SDS011;8646;49.716;9.266;2024-03-17T04:58:29;5.67;;;2.53;;
17059;SDS011;8646;49.716;9.266;2024-03-17T05:01:31;8.00;;;2.53;;
17059;SDS011;8646;49.716;9.266;2024-03-17T05:04:36;4.13;;;2.50;;
17059;SDS011;8646;49.716;9.266;2024-03-17T05:07:38;7.33;;;2.60;;
17059;SDS011;8646;49.716;9.266;2024-03-17T05:10:41;5.23;;;2.43;;
17059;SDS011;8646;49.716;9.266;2024-03-17T05:13:43;3.33;;;2.37;;
17059;SDS011;8646;49.716;9.266;2024-03-17T05:16:44;4.70;;;2.27;;
17059;SDS011;8646;49.716;9.266;2024-03-17T05:19:46;5.53;;;2.67;;
17059;SDS011;8646;49.716;9.266;2024-03-17T05:22:49;5.27;;;2.60;;
17059;SDS011;8646;49.716;9.266;2024-03-17T05:25:52;7.57;;;2.90;;
17059;SDS011;8646;49.716;9.266;2024-03-17T05:28:54;5.83;;;3.00;;
17059;SDS011;8646;49.716;9.266;2024-03-17T05:31:56;7.63;;;2.90;;
17059;SDS011;8646;49.716;9.266;2024-03-17T05:34:57;4.57;;;2.90;;
17059;SDS011;8646;49.716;9.266;2024-03-17T05:37:59;7.93;;;3.53;;
17059;SDS011;8646;49.716;9.266;2024-03-17T05:41:03;10.47;;;5.57;;
17059;SDS011;8646;49.716;9.266;2024-03-17T05:44:06;10.00;;;5.93;;
17059;SDS011;8646;49.716;9.266;2024-03-17T05:47:08;7.60;;;3.40;;
17059;SDS011;8646;49.716;9.266;2024-03-17T05:50:09;6.93;;;3.23;;
17059;SDS011;8646;49.716;9.266;2024-03-17T05:53:12;7.53;;;3.30;;
17059;SDS011;8646;49.716;9.266;2024-03-17T05:56:16;5.13;;;3.23;;
17059;SDS011;8646;49.716;9.266;2024-03-17T05:59:17;5.93;;;2.80;;
17059;SDS011;8646;49.716;9.266;2024-03-17T06:02:19;6.23;;;3.07;;
17059;SDS011;8646;49.716;9.266;2024-03-17T06:05:21;9.40;;;3.83;;
17059;SDS011;8646;49.716;9.266;2024-03-17T06:08:23;6.17;;;3.07;;
17059;SDS011;8646;49.716;9.266;2024-03-17T06:11:26;6.63;;;3.60;;
17059;SDS011;8646;49.716;9.266;2024-03-17T06:14:28;7.30;;;3.60;;
17059;SDS011;8646;49.716;9.266;2024-03-17T06:17:30;6.20;;;3.07;;
17059;SDS011;8646;49.716;9.266;2024-03-17T06:20:31;9.27;;;4.13;;
17059;SDS011;8646;49.716;9.266;2024-03-17T06:23:33;7.50;;;3.70;;
17059;SDS011;8646;49.716;9.266;2024-03-17T06:26:36;7.07;;;3.50;;
17059;SDS011;8646;49.716;9.266;2024-03-17T06:29:38;5.23;;;3.40;;
17059;SDS011;8646;49.716;9.266;2024-03-17T06:32:40;8.40;;;3.27;;
17059;SDS011;8646;49.716;9.266;2024-03-17T06:35:42;5.67;;;3.70;;
17059;SDS011;8646;49.716;9.266;2024-03-17T06:38:44;8.73;;;3.73;;
17059;SDS011;8646;49.716;9.266;2024-03-17T06:41:47;5.53;;;3.37;;
17059;SDS011;8646;49.716;9.266;2024-03-17T06:44:49;9.20;;;3.97;;
17059;SDS011;8646;49.716;9.266;2024-03-17T06:47:51;8.33;;;3.40;;
17059;SDS011;8646;49.716;9.266;2024-03-17T06:50:53;4.57;;;2.70;;
17059;SDS011;8646;49.716;9.266;2024-03-17T06:53:55;5.10;;;2.60;;
17059;SDS011;8646;49.716;9.266;2024-03-17T06:56:58;6.87;;;3.20;;
17059;SDS011;8646;49.716;9.266;2024-03-17T07:00:00;6.90;;;4.17;;
17059;SDS011;8646;49.716;9.266;2024-03-17T07:03:02;8.23;;;4.83;;
17059;SDS011;8646;49.716;9.266;2024-03-17T07:06:04;13.10;;;5.63;;
17059;SDS011;8646;49.716;9.266;2024-03-17T07:09:08;5.37;;;3.30;;
17059;SDS011;8646;49.716;9.266;2024-03-17T07:12:11;8.20;;;3.73;;
17059;SDS011;8646;49.716;9.266;2024-03-17T07:15:13;10.27;;;4.70;;
17059;SDS011;8646;49.716;9.266;2024-03-17T07:18:15;6.87;;;3.83;;
17059;SDS011;8646;49.716;9.266;2024-03-17T07:21:16;4.73;;;3.23;;
17059;SDS011;8646;49.716;9.266;2024-03-17T07:24:18;10.07;;;5.00;;
17059;SDS011;8646;49.716;9.266;2024-03-17T07:27:21;5.57;;;2.57;;
17059;SDS011;8646;49.716;9.266;2024-03-17T07:30:23;7.43;;;2.63;;
17059;SDS011;8646;49.716;9.266;2024-03-17T07:33:25;3.73;;;2.40;;
17059;SDS011;8646;49.716;9.266;2024-03-17T07:36:28;4.03;;;2.40;;
17059;SDS011;8646;49.716;9.266;2024-03-17T07:39:30;8.13;;;3.30;;
17059;SDS011;8646;49.716;9.266;2024-03-17T07:42:34;4.70;;;2.60;;
17059;SDS011;8646;49.716;9.266;2024-03-17T07:45:35;5.70;;;2.10;;
17059;SDS011;8646;49.716;9.266;2024-03-17T07:48:38;3.30;;;1.43;;
17059;SDS011;8646;49.716;9.266;2024-03-17T07:51:41;2.13;;;1.47;;
17059;SDS011;8646;49.716;9.266;2024-03-17T07:54:44;2.67;;;1.53;;
17059;SDS011;8646;49.716;9.266;2024-03-17T07:57:48;4.90;;;2.27;;
17059;SDS011;8646;49.716;9.266;2024-03-17T08:00:51;2.90;;;1.43;;
17059;SDS011;8646;49.716;9.266;2024-03-17T08:03:53;5.23;;;1.90;;
17059;SDS011;8646;49.716;9.266;2024-03-17T08:06:56;9.17;;;3.27;;
17059;SDS011;8646;49.716;9.266;2024-03-17T08:09:58;3.30;;;1.93;;
17059;SDS011;8646;49.716;9.266;2024-03-17T08:13:01;4.80;;;2.77;;
17059;SDS011;8646;49.716;9.266;2024-03-17T08:16:06;4.30;;;1.93;;
17059;SDS011;8646;49.716;9.266;2024-03-17T08:19:09;3.57;;;2.17;;
17059;SDS011;8646;49.716;9.266;2024-03-17T08:22:11;4.13;;;2.20;;
17059;SDS011;8646;49.716;9.266;2024-03-17T08:25:12;5.13;;;2.20;;
17059;SDS011;8646;49.716;9.266;2024-03-17T08:28:15;2.50;;;1.53;;
17059;SDS011;8646;49.716;9.266;2024-03-17T08:31:17;3.27;;;1.90;;
17059;SDS011;8646;49.716;9.266;2024-03-17T08:34:19;2.60;;;1.70;;
17059;SDS011;8646;49.716;9.266;2024-03-17T08:37:21;3.53;;;2.00;;
17059;SDS011;8646;49.716;9.266;2024-03-17T08:40:25;5.03;;;2.77;;
17059;SDS011;8646;49.716;9.266;2024-03-17T08:43:29;2.93;;;1.97;;
17059;SDS011;8646;49.716;9.266;2024-03-17T08:46:30;3.60;;;1.97;;
17059;SDS011;8646;49.716;9.266;2024-03-17T08:49:32;6.00;;;2.40;;
17059;SDS011;8646;49.716;9.266;2024-03-17T08:52:34;4.37;;;2.50;;
17059;SDS011;8646;49.716;9.266;2024-03-17T08:55:38;4.73;;;2.50;;
17059;SDS011;8646;49.716;9.266;2024-03-17T08:58:41;6.83;;;2.17;;
17059;SDS011;8646;49.716;9.266;2024-03-17T09:01:43;4.57;;;2.37;;
17059;SDS011;8646;49.716;9.266;2024-03-17T09:04:45;4.77;;;2.47;;
17059;SDS011;8646;49.716;9.266;2024-03-17T09:07:47;3.70;;;2.40;;
17059;SDS011;8646;49.716;9.266;2024-03-17T09:10:49;5.30;;;2.20;;
17059;SDS011;8646;49.716;9.266;2024-03-17T09:13:54;5.27;;;2.47;;
17059;SDS011;8646;49.716;9.266;2024-03-17T09:16:56;3.40;;;2.13;;
17059;SDS011;8646;49.716;9.266;2024-03-17T09:19:58;7.47;;;2.73;;
17059;SDS011;8646;49.716;9.266;2024-03-17T09:23:00;5.00;;;2.37;;
17059;SDS011;8646;49.716;9.266;2024-03-17T09:26:02;9.20;;;3.13;;
17059;SDS011;8646;49.716;9.266;2024-03-17T09:29:06;5.90;;;2.40;;
17059;SDS011;8646;49.716;9.266;2024-03-17T09:32:08;5.37;;;2.47;;
17059;SDS011;8646;49.716;9.266;2024-03-17T09:35:16;5.70;;;2.20;;
17059;SDS011;8646;49.716;9.266;2024-03-17T09:38:17;11.50;;;3.80;;
17059;SDS011;8646;49.716;9.266;2024-03-17T09:41:20;4.00;;;2.10;;
17059;SDS011;8646;49.716;9.266;2024-03-17T09:44:26;5.20;;;2.60;;
17059;SDS011;8646;49.716;9.266;2024-03-17T09:47:28;4.57;;;2.43;;
17059;SDS011;8646;49.716;9.266;2024-03-17T09:50:30;5.60;;;2.40;;
17059;SDS011;8646;49.716;9.266;2024-03-17T09:53:35;5.40;;;2.60;;
17059;SDS011;8646;49.716;9.266;2024-03-17T09:56:36;7.47;;;2.97;;
17059;SDS011;8646;49.716;9.266;2024-03-17T09:59:40;5.17;;;2.67;;
17059;SDS011;8646;49.716;9.266;2024-03-17T10:02:56;4.70;;;2.87;;
17059;SDS011;8646;49.716;9.266;2024-03-17T10:05:59;6.50;;;3.47;;
17059;SDS011;8646;49.716;9.266;2024-03-17T10:09:01;7.80;;;3.70;;
17059;SDS011;8646;49.716;9.266;2024-03-17T10:12:04;4.73;;;2.43;;
17059;SDS011;8646;49.716;9.266;2024-03-17T10:15:10;4.57;;;2.30;;
17059;SDS011;8646;49.716;9.266;2024-03-17T10:18:19;5.03;;;2.30;;
17059;SDS011;8646;49.716;9.266;2024-03-17T10:21:24;10.57;;;4.17;;
17059;SDS011;8646;49.716;9.266;2024-03-17T10:24:28;3.53;;;1.90;;
17059;SDS011;8646;49.716;9.266;2024-03-17T10:27:29;5.73;;;2.70;;
17059;SDS011;8646;49.716;9.266;2024-03-17T10:30:33;3.63;;;1.87;;
17059;SDS011;8646;49.716;9.266;2024-03-17T10:33:35;5.43;;;2.60;;
17059;SDS011;8646;49.716;9.266;2024-03-17T10:36:36;9.50;;;5.00;;
17059;SDS011;8646;49.716;9.266;2024-03-17T10:39:38;5.57;;;2.40;;
17059;SDS011;8646;49.716;9.266;2024-03-17T10:42:41;6.10;;;2.27;;
17059;SDS011;8646;49.716;9.266;2024-03-17T10:45:44;7.33;;;2.87;;
17059;SDS011;8646;49.716;9.266;2024-03-17T10:48:46;4.67;;;2.20;;
17059;SDS011;8646;49.716;9.266;2024-03-17T10:51:49;3.70;;;2.10;;
17059;SDS011;8646;49.716;9.266;2024-03-17T10:54:57;5.07;;;2.40;;
17059;SDS011;8646;49.716;9.266;2024-03-17T10:58:03;8.03;;;3.20;;
17059;SDS011;8646;49.716;9.266;2024-03-17T11:01:10;6.10;;;2.50;;
17059;SDS011;8646;49.716;9.266;2024-03-17T11:04:13;4.47;;;3.10;;
17059;SDS011;8646;49.716;9.266;2024-03-17T11:07:15;6.70;;;3.03;;
17059;SDS011;8646;49.716;9.266;2024-03-17T11:10:21;6.63;;;2.97;;
17059;SDS011;8646;49.716;9.266;2024-03-17T11:13:24;3.73;;;2.10;;
17059;SDS011;8646;49.716;9.266;2024-03-17T11:16:29;4.90;;;2.57;;
17059;SDS011;8646;49.716;9.266;2024-03-17T11:19:30;7.50;;;3.40;;
17059;SDS011;8646;49.716;9.266;2024-03-17T11:22:41;10.23;;;3.23;;
17059;SDS011;8646;49.716;9.266;2024-03-17T11:25:44;5.90;;;2.50;;
17059;SDS011;8646;49.716;9.266;2024-03-17T11:28:53;3.93;;;2.20;;
17059;SDS011;8646;49.716;9.266;2024-03-17T11:31:57;7.17;;;2.30;;
17059;SDS011;8646;49.716;9.266;2024-03-17T11:35:12;3.53;;;2.03;;
17059;SDS011;8646;49.716;9.266;2024-03-17T11:42:03;4.60;;;2.40;;
17059;SDS011;8646;49.716;9.266;2024-03-17T11:45:12;3.63;;;2.37;;
17059;SDS011;8646;49.716;9.266;2024-03-17T11:48:17;3.37;;;2.10;;
17059;SDS011;8646;49.716;9.266;2024-03-17T11:51:19;5.03;;;2.27;;
17059;SDS011;8646;49.716;9.266;2024-03-17T11:54:22;6.07;;;2.67;;
17059;SDS011;8646;49.716;9.266;2024-03-17T11:57:27;3.97;;;2.20;;
17059;SDS011;8646;49.716;9.266;2024-03-17T12:00:28;5.83;;;3.40;;
17059;SDS011;8646;49.716;9.266;2024-03-17T12:03:32;7.50;;;3.00;;
17059;SDS011;8646;49.716;9.266;2024-03-17T12:06:33;4.67;;;2.20;;
17059;SDS011;8646;49.716;9.266;2024-03-17T12:09:35;3.63;;;1.97;;
17059;SDS011;8646;49.716;9.266;2024-03-17T12:12:35;4.27;;;2.07;;
17059;SDS011;8646;49.716;9.266;2024-03-17T12:15:38;5.13;;;2.13;;
17059;SDS011;8646;49.716;9.266;2024-03-17T12:18:40;4.77;;;2.00;;
17059;SDS011;8646;49.716;9.266;2024-03-17T12:21:46;8.43;;;2.43;;
17059;SDS011;8646;49.716;9.266;2024-03-17T12:24:50;4.87;;;1.90;;
17059;SDS011;8646;49.716;9.266;2024-03-17T12:27:54;4.67;;;1.90;;
17059;SDS011;8646;49.716;9.266;2024-03-17T12:30:55;4.30;;;2.03;;
17059;SDS011;8646;49.716;9.266;2024-03-17T12:34:00;5.63;;;2.10;;
17059;SDS011;8646;49.716;9.266;2024-03-17T12:37:03;3.40;;;1.83;;
17059;SDS011;8646;49.716;9.266;2024-03-17T12:40:06;3.53;;;2.17;;
17059;SDS011;8646;49.716;9.266;2024-03-17T12:43:18;3.90;;;1.70;;
17059;SDS011;8646;49.716;9.266;2024-03-17T12:46:20;6.90;;;2.30;;
17059;SDS011;8646;49.716;9.266;2024-03-17T12:49:23;4.33;;;1.93;;
17059;SDS011;8646;49.716;9.266;2024-03-17T12:52:26;5.40;;;1.73;;
17059;SDS011;8646;49.716;9.266;2024-03-17T12:55:29;4.17;;;2.00;;
17059;SDS011;8646;49.716;9.266;2024-03-17T12:58:48;4.43;;;2.00;;
17059;SDS011;8646;49.716;9.266;2024-03-17T13:02:09;3.13;;;1.60;;
17059;SDS011;8646;49.716;9.266;2024-03-17T13:05:18;5.90;;;1.90;;
17059;SDS011;8646;49.716;9.266;2024-03-17T13:08:21;3.33;;;1.60;;
17059;SDS011;8646;49.716;9.266;2024-03-17T13:11:22;4.33;;;1.93;;
17059;SDS011;8646;49.716;9.266;2024-03-17T13:14:24;3.77;;;1.80;;
17059;SDS011;8646;49.716;9.266;2024-03-17T13:17:26;3.23;;;1.97;;
17059;SDS011;8646;49.716;9.266;2024-03-17T13:20:30;4.00;;;2.07;;
17059;SDS011;8646;49.716;9.266;2024-03-17T13:23:33;4.87;;;2.07;;
17059;SDS011;8646;49.716;9.266;2024-03-17T13:26:35;5.17;;;1.80;;
17059;SDS011;8646;49.716;9.266;2024-03-17T13:29:36;9.37;;;3.67;;
17059;SDS011;8646;49.716;9.266;2024-03-17T13:32:39;3.90;;;1.77;;
17059;SDS011;8646;49.716;9.266;2024-03-17T13:35:42;2.30;;;1.60;;
17059;SDS011;8646;49.716;9.266;2024-03-17T13:38:44;2.60;;;1.60;;
17059;SDS011;8646;49.716;9.266;2024-03-17T13:41:45;2.30;;;1.50;;
17059;SDS011;8646;49.716;9.266;2024-03-17T13:44:49;4.60;;;1.87;;
17059;SDS011;8646;49.716;9.266;2024-03-17T13:47:52;7.60;;;3.27;;
17059;SDS011;8646;49.716;9.266;2024-03-17T13:50:58;3.23;;;1.77;;
17059;SDS011;8646;49.716;9.266;2024-03-17T13:54:00;10.80;;;4.07;;
17059;SDS011;8646;49.716;9.266;2024-03-17T13:57:02;5.27;;;1.73;;
17059;SDS011;8646;49.716;9.266;2024-03-17T14:00:05;4.20;;;1.80;;
17059;SDS011;8646;49.716;9.266;2024-03-17T14:03:08;5.60;;;1.93;;
17059;SDS011;8646;49.716;9.266;2024-03-17T14:06:12;4.43;;;1.80;;
17059;SDS011;8646;49.716;9.266;2024-03-17T14:09:14;4.67;;;1.60;;
17059;SDS011;8646;49.716;9.266;2024-03-17T14:12:18;4.00;;;1.50;;
17059;SDS011;8646;49.716;9.266;2024-03-17T14:15:20;3.73;;;1.70;;
17059;SDS011;8646;49.716;9.266;2024-03-17T14:18:22;2.63;;;1.60;;
17059;SDS011;8646;49.716;9.266;2024-03-17T14:21:25;3.97;;;1.40;;
17059;SDS011;8646;49.716;9.266;2024-03-17T14:24:27;3.80;;;1.70;;
17059;SDS011;8646;49.716;9.266;2024-03-17T14:27:29;2.33;;;1.40;;
17059;SDS011;8646;49.716;9.266;2024-03-17T14:30:30;4.10;;;1.50;;
17059;SDS011;8646;49.716;9.266;2024-03-17T14:33:33;3.77;;;1.60;;
17059;SDS011;8646;49.716;9.266;2024-03-17T14:36:37;3.23;;;1.50;;
17059;SDS011;8646;49.716;9.266;2024-03-17T14:39:38;2.83;;;1.40;;
17059;SDS011;8646;49.716;9.266;2024-03-17T14:42:40;3.83;;;1.50;;
17059;SDS011;8646;49.716;9.266;2024-03-17T14:45:42;2.60;;;1.67;;
17059;SDS011;8646;49.716;9.266;2024-03-17T14:48:44;5.57;;;1.73;;
17059;SDS011;8646;49.716;9.266;2024-03-17T14:51:49;4.37;;;1.73;;
17059;SDS011;8646;49.716;9.266;2024-03-17T14:54:50;4.00;;;1.70;;
17059;SDS011;8646;49.716;9.266;2024-03-17T14:57:54;3.17;;;1.70;;
17059;SDS011;8646;49.716;9.266;2024-03-17T15:00:56;3.47;;;1.47;;
17059;SDS011;8646;49.716;9.266;2024-03-17T15:03:57;4.97;;;1.80;;
17059;SDS011;8646;49.716;9.266;2024-03-17T15:07:00;5.93;;;1.70;;
17059;SDS011;8646;49.716;9.266;2024-03-17T15:10:03;4.60;;;1.60;;
17059;SDS011;8646;49.716;9.266;2024-03-17T15:13:05;6.80;;;2.07;;
17059;SDS011;8646;49.716;9.266;2024-03-17T15:16:07;4.23;;;1.87;;
17059;SDS011;8646;49.716;9.266;2024-03-17T15:19:09;2.43;;;1.60;;
17059;SDS011;8646;49.716;9.266;2024-03-17T15:22:12;4.50;;;1.93;;
17059;SDS011;8646;49.716;9.266;2024-03-17T15:25:14;4.23;;;1.77;;
17059;SDS011;8646;49.716;9.266;2024-03-17T15:28:17;5.53;;;1.90;;
17059;SDS011;8646;49.716;9.266;2024-03-17T15:31:18;3.07;;;1.70;;
17059;SDS011;8646;49.716;9.266;2024-03-17T15:34:22;5.50;;;1.87;;
17059;SDS011;8646;49.716;9.266;2024-03-17T15:37:25;20.53;;;6.53;;
17059;SDS011;8646;49.716;9.266;2024-03-17T15:40:27;4.20;;;2.00;;
17059;SDS011;8646;49.716;9.266;2024-03-17T15:43:28;3.67;;;1.70;;
17059;SDS011;8646;49.716;9.266;2024-03-17T15:46:32;4.23;;;1.87;;
17059;SDS011;8646;49.716;9.266;2024-03-17T15:49:34;5.40;;;1.80;;
17059;SDS011;8646;49.716;9.266;2024-03-17T15:52:37;4.57;;;1.70;;
17059;SDS011;8646;49.716;9.266;2024-03-17T15:55:39;6.07;;;2.23;;
17059;SDS011;8646;49.716;9.266;2024-03-17T15:58:41;3.50;;;1.70;;
17059;SDS011;8646;49.716;9.266;2024-03-17T16:01:42;4.77;;;2.23;;
17059;SDS011;8646;49.716;9.266;2024-03-17T16:04:44;9.70;;;4.13;;
17059;SDS011;8646;49.716;9.266;2024-03-17T16:07:48;10.37;;;3.43;;
17059;SDS011;8646;49.716;9.266;2024-03-17T16:10:51;4.63;;;1.90;;
17059;SDS011;8646;49.716;9.266;2024-03-17T16:13:57;4.77;;;1.50;;
17059;SDS011;8646;49.716;9.266;2024-03-17T16:17:00;4.27;;;1.40;;
17059;SDS011;8646;49.716;9.266;2024-03-17T16:20:02;5.23;;;1.50;;
17059;SDS011;8646;49.716;9.266;2024-03-17T16:23:10;7.10;;;2.10;;
17059;SDS011;8646;49.716;9.266;2024-03-17T16:26:12;4.90;;;2.00;;
17059;SDS011;8646;49.716;9.266;2024-03-17T16:29:14;5.53;;;1.73;;
17059;SDS011;8646;49.716;9.266;2024-03-17T16:32:16;4.70;;;1.83;;
17059;SDS011;8646;49.716;9.266;2024-03-17T16:35:18;3.87;;;2.13;;
17059;SDS011;8646;49.716;9.266;2024-03-17T16:38:21;3.63;;;1.70;;
17059;SDS011;8646;49.716;9.266;2024-03-17T16:41:23;3.53;;;1.87;;
17059;SDS011;8646;49.716;9.266;2024-03-17T16:44:26;3.33;;;1.50;;
17059;SDS011;8646;49.716;9.266;2024-03-17T16:47:34;3.33;;;1.57;;
17059;SDS011;8646;49.716;9.266;2024-03-17T16:50:36;3.53;;;1.37;;
17059;SDS011;8646;49.716;9.266;2024-03-17T16:53:39;3.60;;;1.40;;
17059;SDS011;8646;49.716;9.266;2024-03-17T16:56:40;4.70;;;1.20;;
17059;SDS011;8646;49.716;9.266;2024-03-17T16:59:43;1.67;;;1.03;;
17059;SDS011;8646;49.716;9.266;2024-03-17T17:02:44;5.87;;;2.20;;
17059;SDS011;8646;49.716;9.266;2024-03-17T17:05:46;4.40;;;1.60;;
17059;SDS011;8646;49.716;9.266;2024-03-17T17:08:49;4.03;;;1.20;;
17059;SDS011;8646;49.716;9.266;2024-03-17T17:11:51;4.37;;;2.00;;
17059;SDS011;8646;49.716;9.266;2024-03-17T17:14:53;6.27;;;2.30;;
17059;SDS011;8646;49.716;9.266;2024-03-17T17:17:56;4.80;;;1.70;;
17059;SDS011;8646;49.716;9.266;2024-03-17T17:20:58;11.47;;;4.30;;
17059;SDS011;8646;49.716;9.266;2024-03-17T17:24:01;14.00;;;6.07;;
17059;SDS011;8646;49.716;9.266;2024-03-17T17:27:04;8.37;;;4.00;;
17059;SDS011;8646;49.716;9.266;2024-03-17T17:30:09;8.30;;;3.30;;
17059;SDS011;8646;49.716;9.266;2024-03-17T17:33:11;6.00;;;3.00;;
17059;SDS011;8646;49.716;9.266;2024-03-17T17:36:13;4.57;;;1.30;;
17059;SDS011;8646;49.716;9.266;2024-03-17T17:39:16;4.60;;;1.67;;
17059;SDS011;8646;49.716;9.266;2024-03-17T17:42:19;4.33;;;1.40;;
17059;SDS011;8646;49.716;9.266;2024-03-17T17:45:22;3.90;;;1.93;;
17059;SDS011;8646;49.716;9.266;2024-03-17T17:48:26;5.70;;;2.00;;
17059;SDS011;8646;49.716;9.266;2024-03-17T17:51:28;5.20;;;1.93;;
17059;SDS011;8646;49.716;9.266;2024-03-17T17:54:31;7.17;;;2.10;;
17059;SDS011;8646;49.716;9.266;2024-03-17T17:57:33;6.77;;;4.23;;
17059;SDS011;8646;49.716;9.266;2024-03-17T18:00:35;6.07;;;3.13;;
17059;SDS011;8646;49.716;9.266;2024-03-17T18:03:37;14.67;;;3.30;;
17059;SDS011;8646;49.716;9.266;2024-03-17T18:06:39;7.37;;;3.00;;
17059;SDS011;8646;49.716;9.266;2024-03-17T18:09:42;4.10;;;2.60;;
17059;SDS011;8646;49.716;9.266;2024-03-17T18:12:44;10.93;;;3.70;;
17059;SDS011;8646;49.716;9.266;2024-03-17T18:15:46;3.17;;;2.07;;
17059;SDS011;8646;49.716;9.266;2024-03-17T18:18:48;4.67;;;2.50;;
17059;SDS011;8646;49.716;9.266;2024-03-17T18:21:50;6.67;;;2.47;;
17059;SDS011;8646;49.716;9.266;2024-03-17T18:24:54;4.27;;;2.20;;
17059;SDS011;8646;49.716;9.266;2024-03-17T18:27:55;6.33;;;2.30;;
17059;SDS011;8646;49.716;9.266;2024-03-17T18:30:57;10.03;;;5.30;;
17059;SDS011;8646;49.716;9.266;2024-03-17T18:33:59;9.70;;;4.83;;
17059;SDS011;8646;49.716;9.266;2024-03-17T18:37:01;10.43;;;3.83;;
17059;SDS011;8646;49.716;9.266;2024-03-17T18:40:06;4.93;;;2.47;;